Time;durP1;ratioP1;P1;durP2;ratioP2;P2;SDS_P1;SDS_P2;PMS_P1;PMS_P2;Temp;Humidity;BMP_temperature;BMP_pressure;BME280_temperature;BME280_humidity;BME280_pressure;Samples;Min_cycle;Max_cycle;Signal;HPM_P1;HPM_P2
2022/12/07 00:00:41;;;;;;;5.28;3.50;;;5.30;99.90;;;;;;5089867;28;20036;-64
2022/12/07 00:03:06;;;;;;;7.82;3.90;;;5.30;99.90;;;;;;5071279;28;20069;-64
2022/12/07 00:05:32;;;;;;;6.18;4.00;;;5.30;99.90;;;;;;5075810;28;20097;-64
2022/12/07 00:07:57;;;;;;;6.07;3.60;;;5.30;99.90;;;;;;5088260;28;20035;-64
2022/12/07 00:10:23;;;;;;;5.57;3.78;;;5.20;99.90;;;;;;5089764;28;20099;-64
2022/12/07 00:12:49;;;;;;;3.75;3.20;;;5.20;99.90;;;;;;5103707;28;20507;-64
2022/12/07 00:15:15;;;;;;;6.90;3.15;;;5.20;99.90;;;;;;5089209;28;20036;-64
2022/12/07 00:17:41;;;;;;;5.60;3.17;;;5.20;99.90;;;;;;5094283;28;20030;-64
2022/12/07 00:20:07;;;;;;;5.00;2.90;;;5.20;99.90;;;;;;5092966;28;20036;-64
2022/12/07 00:22:32;;;;;;;5.15;3.53;;;5.20;99.90;;;;;;5089428;28;20077;-64
2022/12/07 00:24:58;;;;;;;5.20;3.95;;;5.20;99.90;;;;;;5088177;28;20036;-64
2022/12/07 00:27:23;;;;;;;5.28;3.72;;;5.20;99.90;;;;;;5070220;28;20024;-64
2022/12/07 00:29:49;;;;;;;5.05;3.53;;;5.20;99.90;;;;;;5096163;28;20075;-64
2022/12/07 00:32:14;;;;;;;5.88;4.13;;;5.20;99.90;;;;;;5089658;28;20511;-64
2022/12/07 00:34:40;;;;;;;4.43;2.92;;;5.20;99.90;;;;;;5093979;28;20048;-64
2022/12/07 00:37:05;;;;;;;6.38;3.42;;;5.10;99.90;;;;;;5096109;28;20035;-64
2022/12/07 00:39:31;;;;;;;4.68;3.35;;;5.10;99.90;;;;;;5094016;28;20032;-64
2022/12/07 00:41:56;;;;;;;4.50;3.00;;;5.10;99.90;;;;;;5088010;28;20032;-64
2022/12/07 00:44:22;;;;;;;4.22;3.45;;;5.10;99.90;;;;;;5092527;28;20550;-64
2022/12/07 00:46:47;;;;;;;6.03;2.78;;;5.10;99.90;;;;;;5094403;28;20794;-64
2022/12/07 00:49:13;;;;;;;4.40;2.65;;;5.10;99.90;;;;;;5088441;28;20024;-64
2022/12/07 00:51:38;;;;;;;4.38;2.60;;;5.10;99.90;;;;;;5094849;28;20024;-64
2022/12/07 00:54:04;;;;;;;3.80;2.67;;;5.00;99.90;;;;;;5088306;28;20378;-64
2022/12/07 00:56:30;;;;;;;6.28;3.63;;;5.00;99.90;;;;;;5092825;28;20469;-64
2022/12/07 00:58:57;;;;;;;5.13;3.13;;;5.00;99.90;;;;;;5100475;28;20489;-65
2022/12/07 01:01:24;;;;;;;5.03;2.97;;;5.00;99.90;;;;;;5093163;28;20094;-64
2022/12/07 01:03:50;;;;;;;4.50;2.97;;;4.90;99.90;;;;;;5099764;28;20489;-64
2022/12/07 01:06:18;;;;;;;4.70;3.10;;;4.90;99.90;;;;;;5093646;28;20062;-64
2022/12/07 01:08:44;;;;;;;4.07;2.90;;;4.90;99.90;;;;;;5095291;28;20028;-64
2022/12/07 01:11:13;;;;;;;4.18;2.75;;;4.90;99.90;;;;;;5100109;28;20024;-64
2022/12/07 01:13:39;;;;;;;4.30;2.95;;;4.80;99.90;;;;;;5094959;28;20089;-64
2022/12/07 01:16:07;;;;;;;4.70;2.70;;;4.80;99.90;;;;;;5091777;28;20044;-64
2022/12/07 01:18:35;;;;;;;2.45;2.03;;;4.70;99.90;;;;;;5094256;28;20035;-64
2022/12/07 01:21:05;;;;;;;4.07;2.40;;;4.60;99.90;;;;;;5094486;28;20114;-65
2022/12/07 01:23:32;;;;;;;3.70;2.30;;;4.60;99.90;;;;;;5092317;28;20416;-64
2022/12/07 01:25:59;;;;;;;5.35;2.35;;;4.60;99.90;;;;;;5097302;28;20500;-64
2022/12/07 01:28:25;;;;;;;4.75;3.03;;;4.60;99.90;;;;;;5095414;28;20385;-65
2022/12/07 01:31:04;;;;;;;5.32;2.83;;;4.50;99.90;;;;;;5097634;27;20015;-64
2022/12/07 01:33:33;;;;;;;3.03;2.38;;;4.50;99.90;;;;;;5093784;28;20539;-64
2022/12/07 01:36:07;;;;;;;5.28;2.88;;;4.50;99.90;;;;;;5101488;27;20117;-65
2022/12/07 01:38:33;;;;;;;5.97;2.80;;;4.50;99.90;;;;;;5093642;28;20123;-64
2022/12/07 01:41:00;;;;;;;3.88;3.30;;;4.40;99.90;;;;;;5094425;27;20452;-64
2022/12/07 01:43:28;;;;;;;5.22;2.72;;;4.40;99.90;;;;;;5091061;28;20519;-64
2022/12/07 01:45:54;;;;;;;4.13;2.95;;;4.30;99.90;;;;;;5081225;28;20464;-64
2022/12/07 01:48:28;;;;;;;3.88;2.80;;;4.30;99.90;;;;;;5096705;28;20091;-64
2022/12/07 01:50:56;;;;;;;3.97;2.45;;;4.30;99.90;;;;;;5091085;28;20542;-64
2022/12/07 01:53:26;;;;;;;5.40;3.05;;;4.30;99.90;;;;;;5093604;28;20073;-64
2022/12/07 01:55:53;;;;;;;4.25;2.50;;;4.30;99.90;;;;;;5093888;28;20105;-64
2022/12/07 01:58:20;;;;;;;5.13;3.45;;;4.20;99.90;;;;;;5096116;28;20019;-63
2022/12/07 02:00:46;;;;;;;4.13;3.08;;;4.20;99.90;;;;;;5093558;28;20061;-64
2022/12/07 02:03:27;;;;;;;6.20;2.90;;;4.20;99.90;;;;;;5094235;28;20031;-63
2022/12/07 02:05:53;;;;;;;5.97;2.55;;;4.30;99.90;;;;;;5091160;28;20023;-64
2022/12/07 02:08:19;;;;;;;5.85;3.92;;;4.20;99.90;;;;;;5096221;28;20012;-64
2022/12/07 02:10:45;;;;;;;4.30;3.17;;;4.20;99.90;;;;;;5099662;28;20024;-64
2022/12/07 02:13:16;;;;;;;4.30;3.05;;;4.20;99.90;;;;;;5099327;28;20042;-65
2022/12/07 02:16:04;;;;;;;3.10;2.60;;;4.20;99.90;;;;;;5095254;28;20497;-64
2022/12/07 02:18:59;;;;;;;5.25;2.92;;;4.10;99.90;;;;;;5108501;27;20015;-64
2022/12/07 02:21:58;;;;;;;4.35;2.63;;;4.10;99.90;;;;;;5087919;27;20448;-64
2022/12/07 02:24:45;;;;;;;6.63;2.50;;;4.00;99.90;;;;;;5096081;28;20024;-65
2022/12/07 02:27:36;;;;;;;4.82;3.08;;;4.00;99.90;;;;;;5094304;28;20076;-64
2022/12/07 02:30:08;;;;;;;4.05;2.67;;;4.00;99.90;;;;;;5093006;28;20473;-64
2022/12/07 02:32:43;;;;;;;5.20;2.75;;;4.00;99.90;;;;;;5097276;27;20072;-63
2022/12/07 02:35:32;;;;;;;3.58;2.20;;;4.00;99.90;;;;;;5090382;28;20492;-64
2022/12/07 02:38:11;;;;;;;5.33;2.60;;;4.00;99.90;;;;;;5093550;27;20028;-69
2022/12/07 02:40:47;;;;;;;3.95;2.13;;;4.00;99.90;;;;;;5093670;28;20054;-64
2022/12/07 02:43:27;;;;;;;7.20;2.47;;;4.00;99.90;;;;;;5100136;28;20016;-64
2022/12/07 02:46:06;;;;;;;3.63;1.88;;;3.90;99.90;;;;;;5095780;28;20481;-64
2022/12/07 02:48:33;;;;;;;3.47;2.17;;;3.90;99.90;;;;;;5090005;28;20032;-64
2022/12/07 02:50:59;;;;;;;6.95;2.13;;;3.90;99.90;;;;;;5095031;28;20392;-64
2022/12/07 02:53:39;;;;;;;3.53;1.98;;;3.90;99.90;;;;;;5117699;27;20024;-65
2022/12/07 02:56:37;;;;;;;3.53;2.08;;;3.90;99.90;;;;;;5103116;27;20526;-64
2022/12/07 02:59:21;;;;;;;4.15;2.33;;;3.90;99.90;;;;;;5089857;28;20123;-64
2022/12/07 03:01:53;;;;;;;2.33;1.92;;;3.90;99.90;;;;;;5090963;28;20099;-64
2022/12/07 03:04:37;;;;;;;4.90;2.13;;;3.90;99.90;;;;;;5090136;28;20020;-64
2022/12/07 03:07:18;;;;;;;3.70;2.47;;;3.80;99.90;;;;;;5078055;28;20557;-64
2022/12/07 03:10:07;;;;;;;3.80;2.40;;;3.90;99.90;;;;;;5093148;28;20533;-64
2022/12/07 03:12:44;;;;;;;6.32;2.60;;;3.90;99.90;;;;;;5093464;28;20039;-64
2022/12/07 03:15:25;;;;;;;5.10;2.33;;;3.90;99.90;;;;;;5088590;28;20023;-64
2022/12/07 03:17:54;;;;;;;3.13;2.05;;;3.90;99.90;;;;;;5091969;27;20511;-63
2022/12/07 03:20:23;;;;;;;5.07;2.80;;;3.90;99.90;;;;;;5091942;28;20032;-65
2022/12/07 03:22:50;;;;;;;3.85;2.83;;;3.80;99.90;;;;;;5089335;28;20038;-64
2022/12/07 03:25:17;;;;;;;3.92;2.10;;;3.90;99.90;;;;;;5089493;28;20024;-64
2022/12/07 03:27:46;;;;;;;5.88;2.38;;;3.90;99.90;;;;;;5096221;28;20028;-64
2022/12/07 03:30:18;;;;;;;4.32;2.30;;;3.90;99.90;;;;;;5092705;28;20059;-64
2022/12/07 03:33:06;;;;;;;1.98;1.40;;;3.90;99.90;;;;;;5093158;28;20028;-63
2022/12/07 03:35:38;;;;;;;3.08;1.67;;;3.90;99.90;;;;;;5089958;28;20040;-64
2022/12/07 03:38:28;;;;;;;2.90;1.42;;;3.90;99.90;;;;;;5089076;28;20024;-64
2022/12/07 03:41:27;;;;;;;3.45;2.10;;;3.90;99.90;;;;;;5089722;28;20075;-64
2022/12/07 03:43:54;;;;;;;3.33;1.45;;;3.90;99.90;;;;;;5092356;28;20032;-64
2022/12/07 03:46:38;;;;;;;2.20;1.50;;;3.80;99.90;;;;;;5089612;28;20028;-64
2022/12/07 03:49:20;;;;;;;2.47;1.42;;;3.90;99.90;;;;;;5088816;28;20106;-64
2022/12/07 03:51:54;;;;;;;1.95;1.30;;;3.90;99.90;;;;;;5099661;28;20432;-64
2022/12/07 03:54:30;;;;;;;3.60;1.50;;;3.90;99.90;;;;;;5082225;28;20032;-63
2022/12/07 03:56:57;;;;;;;3.42;1.60;;;3.90;99.90;;;;;;5096995;28;20027;-64
2022/12/07 03:59:23;;;;;;;4.43;1.35;;;3.90;99.90;;;;;;5094279;28;20028;-64
2022/12/07 04:01:55;;;;;;;2.72;1.38;;;3.80;99.90;;;;;;5089021;28;20074;-64
2022/12/07 04:04:21;;;;;;;2.20;1.20;;;3.90;99.90;;;;;;5094010;28;20050;-64
2022/12/07 04:06:47;;;;;;;2.78;1.42;;;3.90;99.90;;;;;;5097091;28;20026;-64
2022/12/07 04:09:14;;;;;;;4.65;1.88;;;3.90;99.90;;;;;;5071409;28;20028;-64
2022/12/07 04:11:39;;;;;;;3.55;1.50;;;4.00;99.90;;;;;;5088960;28;20107;-64
2022/12/07 04:14:20;;;;;;;2.97;1.65;;;4.00;99.90;;;;;;5096616;28;20115;-64
2022/12/07 04:16:57;;;;;;;1.95;1.25;;;4.00;99.90;;;;;;5091776;28;20024;-64
2022/12/07 04:19:25;;;;;;;3.88;1.40;;;4.00;99.90;;;;;;5093688;28;20393;-64
2022/12/07 04:21:51;;;;;;;5.88;1.52;;;4.00;99.90;;;;;;5094781;28;20107;-64
2022/12/07 04:24:17;;;;;;;4.20;1.30;;;4.00;99.90;;;;;;5088393;28;20111;-64
2022/12/07 04:26:43;;;;;;;4.22;0.98;;;4.00;99.90;;;;;;5094074;28;20032;-63
2022/12/07 04:29:09;;;;;;;4.25;1.50;;;4.10;99.90;;;;;;5093007;28;20740;-64
2022/12/07 04:31:35;;;;;;;4.28;1.08;;;4.10;99.90;;;;;;5091009;28;20493;-64
2022/12/07 04:34:01;;;;;;;4.07;1.02;;;4.10;99.90;;;;;;5092248;28;20043;-64
2022/12/07 04:36:27;;;;;;;2.88;0.98;;;4.10;99.90;;;;;;5095959;28;20108;-64
2022/12/07 04:38:54;;;;;;;3.65;1.27;;;4.10;99.90;;;;;;5092243;28;20111;-64
2022/12/07 04:41:26;;;;;;;1.92;0.70;;;4.10;99.90;;;;;;5097959;28;20504;-64
2022/12/07 04:43:53;;;;;;;3.50;1.05;;;4.10;99.90;;;;;;5094648;28;20047;-63
2022/12/07 04:46:19;;;;;;;1.77;0.82;;;4.10;99.90;;;;;;5092035;28;20028;-64
2022/12/07 04:48:44;;;;;;;2.30;0.90;;;4.10;99.90;;;;;;5093214;28;20031;-64
2022/12/07 04:51:10;;;;;;;2.78;0.95;;;4.10;99.90;;;;;;5095087;28;20020;-65
2022/12/07 04:53:35;;;;;;;4.00;1.00;;;4.00;99.90;;;;;;5095057;27;20500;-64
2022/12/07 04:56:01;;;;;;;3.83;0.90;;;4.10;99.90;;;;;;5094808;28;20039;-64
2022/12/07 04:58:26;;;;;;;3.65;1.33;;;4.10;99.90;;;;;;5097566;28;20077;-64
2022/12/07 05:00:55;;;;;;;3.08;1.10;;;4.10;99.90;;;;;;5093812;28;20036;-64
2022/12/07 05:03:20;;;;;;;3.92;1.33;;;4.10;99.90;;;;;;5095212;28;20107;-63
2022/12/07 05:05:46;;;;;;;2.33;1.00;;;4.10;99.90;;;;;;5092713;28;20088;-63
2022/12/07 05:08:11;;;;;;;2.38;1.10;;;4.10;99.90;;;;;;5099753;28;20016;-63
2022/12/07 05:10:37;;;;;;;2.42;0.90;;;4.10;99.90;;;;;;5094691;28;20477;-63
2022/12/07 05:13:02;;;;;;;2.08;0.98;;;4.20;99.90;;;;;;5094147;28;20028;-63
2022/12/07 05:15:28;;;;;;;2.28;0.80;;;4.20;99.90;;;;;;5076557;28;20076;-64
2022/12/07 05:17:53;;;;;;;1.10;0.80;;;4.10;99.90;;;;;;5091703;28;20432;-64
2022/12/07 05:20:19;;;;;;;2.53;0.90;;;4.10;99.90;;;;;;5091660;28;20051;-64
2022/12/07 05:22:44;;;;;;;1.80;0.82;;;4.20;99.90;;;;;;5097095;28;20024;-64
2022/12/07 05:25:10;;;;;;;1.77;0.90;;;4.20;99.90;;;;;;5094948;28;20017;-64
2022/12/07 05:27:36;;;;;;;4.22;0.80;;;4.20;99.90;;;;;;5101090;28;20414;-64
2022/12/07 05:30:01;;;;;;;2.92;0.90;;;4.20;99.90;;;;;;5097248;28;20786;-64
2022/12/07 05:32:27;;;;;;;4.25;0.85;;;4.20;99.90;;;;;;5097960;28;20085;-65
2022/12/07 05:34:54;;;;;;;2.92;1.17;;;4.20;99.90;;;;;;5096911;28;20078;-64
2022/12/07 05:37:20;;;;;;;4.00;0.98;;;4.20;99.90;;;;;;5073743;28;20024;-64
2022/12/07 05:39:45;;;;;;;3.65;0.90;;;4.20;99.90;;;;;;5099735;28;20534;-64
2022/12/07 05:42:13;;;;;;;2.08;0.85;;;4.10;99.90;;;;;;5074216;28;20024;-63
2022/12/07 05:44:44;;;;;;;3.92;0.60;;;4.20;99.90;;;;;;5093736;28;20028;-65
2022/12/07 05:47:11;;;;;;;4.32;1.00;;;4.20;99.90;;;;;;5095189;28;20046;-64
2022/12/07 05:49:37;;;;;;;1.35;0.57;;;4.20;99.90;;;;;;5094870;28;20069;-64
2022/12/07 05:52:03;;;;;;;1.88;0.52;;;4.20;99.90;;;;;;5093796;28;20028;-63
2022/12/07 05:54:29;;;;;;;2.50;0.60;;;4.20;99.90;;;;;;5094659;28;20024;-64
2022/12/07 05:56:55;;;;;;;3.33;1.10;;;4.20;99.90;;;;;;5102289;28;20416;-64
2022/12/07 05:59:23;;;;;;;1.38;0.50;;;4.20;99.90;;;;;;5092940;28;20069;-64
2022/12/07 06:02:04;;;;;;;4.78;0.60;;;4.20;99.90;;;;;;5098126;27;20074;-65
2022/12/07 06:04:33;;;;;;;0.85;0.40;;;4.20;99.90;;;;;;5108103;28;20099;-64
2022/12/07 06:06:59;;;;;;;1.80;0.52;;;4.20;99.90;;;;;;5112548;28;20022;-63
2022/12/07 06:09:26;;;;;;;1.25;0.50;;;4.20;99.90;;;;;;5103447;27;20021;-63
2022/12/07 06:14:35;;;;;;;2.25;0.50;;;4.10;99.90;;;;;;5107333;28;20059;-64
2022/12/07 06:17:01;;;;;;;1.88;0.57;;;4.10;99.90;;;;;;5098658;28;20446;-63
2022/12/07 06:19:27;;;;;;;2.83;0.50;;;4.10;99.90;;;;;;5099913;28;20020;-63
2022/12/07 06:21:52;;;;;;;2.65;0.60;;;4.10;99.90;;;;;;5109204;28;20472;-64
2022/12/07 06:24:18;;;;;;;3.33;0.60;;;4.10;99.90;;;;;;5099118;28;20039;-64
2022/12/07 06:26:44;;;;;;;1.65;0.57;;;4.00;99.90;;;;;;5102924;28;20018;-63
2022/12/07 06:29:11;;;;;;;3.50;0.75;;;4.00;99.90;;;;;;5101379;28;20427;-63
2022/12/07 06:31:37;;;;;;;2.60;0.60;;;4.10;99.90;;;;;;5088204;28;20035;-63
2022/12/07 06:34:05;;;;;;;2.85;0.80;;;4.10;99.90;;;;;;5076112;27;20140;-63
2022/12/07 06:36:31;;;;;;;4.00;0.70;;;4.10;99.90;;;;;;5103856;28;20020;-63
2022/12/07 06:38:57;;;;;;;2.42;0.98;;;4.10;99.90;;;;;;5093291;28;20508;-63
2022/12/07 06:41:23;;;;;;;3.33;0.80;;;4.10;99.90;;;;;;5102748;27;20028;-64
2022/12/07 06:43:49;;;;;;;3.22;0.80;;;4.10;99.90;;;;;;5105593;28;20027;-63
2022/12/07 06:46:15;;;;;;;2.45;0.82;;;4.10;99.90;;;;;;5098698;28;20384;-63
2022/12/07 06:48:41;;;;;;;3.83;0.77;;;4.10;99.90;;;;;;5098545;28;20070;-63
2022/12/07 06:51:07;;;;;;;1.95;0.50;;;4.10;99.90;;;;;;5103806;28;20039;-63
2022/12/07 06:53:33;;;;;;;2.50;0.60;;;4.10;99.90;;;;;;5095603;28;20058;-63
2022/12/07 06:55:58;;;;;;;1.58;0.60;;;4.10;99.90;;;;;;5098369;28;20024;-63
2022/12/07 06:58:24;;;;;;;2.88;0.70;;;4.10;99.90;;;;;;5093427;28;20078;-63
2022/12/07 07:00:50;;;;;;;2.88;0.55;;;4.10;99.90;;;;;;5101733;28;20023;-63
2022/12/07 07:03:16;;;;;;;1.90;0.85;;;4.10;99.90;;;;;;5094801;28;20039;-64
2022/12/07 07:05:42;;;;;;;3.28;0.60;;;4.00;99.90;;;;;;5100824;28;20393;-64
2022/12/07 07:08:08;;;;;;;4.20;0.82;;;4.00;99.90;;;;;;5103394;28;20039;-63
2022/12/07 07:10:33;;;;;;;2.53;0.80;;;4.00;99.90;;;;;;5096437;28;20012;-63
2022/12/07 07:12:59;;;;;;;1.80;0.60;;;4.00;99.90;;;;;;5112965;28;20015;-63
2022/12/07 07:15:25;;;;;;;1.58;0.50;;;3.90;99.90;;;;;;5101324;28;20107;-63
2022/12/07 07:17:50;;;;;;;1.67;0.70;;;3.90;99.90;;;;;;5092988;28;20074;-63
2022/12/07 07:20:16;;;;;;;2.38;0.60;;;3.90;99.90;;;;;;5079843;28;20031;-63
2022/12/07 07:22:41;;;;;;;1.17;0.60;;;3.90;99.90;;;;;;5092894;28;20024;-63
2022/12/07 07:25:07;;;;;;;2.92;0.63;;;3.90;99.90;;;;;;5098124;28;20481;-64
2022/12/07 07:27:32;;;;;;;0.98;0.60;;;3.90;99.90;;;;;;5109827;28;20032;-64
2022/12/07 07:29:58;;;;;;;1.75;0.65;;;3.80;99.90;;;;;;5111894;28;20118;-64
2022/12/07 07:32:23;;;;;;;4.38;0.85;;;3.90;99.90;;;;;;5079152;28;20028;-63
2022/12/07 07:34:49;;;;;;;3.65;0.85;;;3.80;99.90;;;;;;5095721;28;20104;-63
2022/12/07 07:37:14;;;;;;;2.63;0.88;;;3.70;99.90;;;;;;5104512;28;20590;-63
2022/12/07 07:39:40;;;;;;;2.63;0.68;;;3.70;99.90;;;;;;5096482;28;20035;-64
2022/12/07 07:42:07;;;;;;;2.05;0.68;;;3.70;99.90;;;;;;5096432;27;20496;-64
2022/12/07 07:44:33;;;;;;;2.88;0.88;;;3.70;99.90;;;;;;5103635;28;20020;-64
2022/12/07 07:46:59;;;;;;;1.58;0.60;;;3.70;99.90;;;;;;5102277;28;20016;-64
2022/12/07 07:49:25;;;;;;;1.60;0.80;;;3.70;99.90;;;;;;5080623;28;20035;-64
2022/12/07 07:51:50;;;;;;;1.92;0.75;;;3.70;99.90;;;;;;5098959;28;20054;-64
2022/12/07 07:54:16;;;;;;;1.92;0.60;;;3.70;99.90;;;;;;5102493;28;20035;-64
2022/12/07 07:56:44;;;;;;;2.50;0.77;;;3.60;99.90;;;;;;5083917;28;20035;-64
2022/12/07 07:59:09;;;;;;;3.00;0.80;;;3.70;99.90;;;;;;5103402;28;20028;-64
2022/12/07 08:01:35;;;;;;;2.00;0.50;;;3.70;99.90;;;;;;5111784;28;20024;-64
2022/12/07 08:04:00;;;;;;;1.30;0.55;;;3.70;99.90;;;;;;5106643;28;20124;-64
2022/12/07 08:06:26;;;;;;;1.83;0.55;;;3.70;99.90;;;;;;5125279;27;20022;-64
2022/12/07 08:08:52;;;;;;;2.60;0.65;;;3.80;99.90;;;;;;5089152;28;20042;-64
2022/12/07 08:11:18;;;;;;;1.60;0.52;;;3.70;99.90;;;;;;5093711;28;20511;-63
2022/12/07 08:13:46;;;;;;;1.10;0.60;;;3.70;99.90;;;;;;5096143;28;20081;-64
2022/12/07 08:16:13;;;;;;;2.10;0.90;;;3.70;99.90;;;;;;5092950;28;20062;-64
2022/12/07 08:18:40;;;;;;;3.38;0.80;;;3.70;99.90;;;;;;5102457;28;20019;-64
2022/12/07 08:21:07;;;;;;;2.35;0.75;;;3.70;99.90;;;;;;5077092;28;20028;-64
2022/12/07 08:23:33;;;;;;;2.30;0.80;;;3.70;99.90;;;;;;5102347;28;20031;-64
2022/12/07 08:26:08;;;;;;;2.85;0.75;;;3.80;99.90;;;;;;5107553;28;20016;-64
2022/12/07 08:28:34;;;;;;;3.00;1.00;;;3.80;99.90;;;;;;5102147;28;20431;-63
2022/12/07 08:31:01;;;;;;;1.55;0.80;;;3.80;99.90;;;;;;5095762;28;20477;-63
2022/12/07 08:33:26;;;;;;;1.85;0.90;;;3.80;99.90;;;;;;5101056;28;20527;-63
2022/12/07 08:35:52;;;;;;;4.93;0.70;;;3.80;99.90;;;;;;5073723;28;20024;-64
2022/12/07 08:38:17;;;;;;;2.50;0.90;;;3.80;99.90;;;;;;5092074;28;20090;-64
2022/12/07 08:40:43;;;;;;;3.63;1.10;;;3.80;99.90;;;;;;5091833;28;20389;-64
2022/12/07 08:43:09;;;;;;;2.00;0.77;;;3.80;99.90;;;;;;5092027;28;20504;-64
2022/12/07 08:45:35;;;;;;;3.75;0.90;;;3.80;99.90;;;;;;5091830;28;20492;-64
2022/12/07 08:48:06;;;;;;;1.88;0.75;;;3.80;99.90;;;;;;5073923;28;20061;-64
2022/12/07 08:50:32;;;;;;;4.20;0.93;;;3.90;99.90;;;;;;5097655;28;20065;-63
2022/12/07 08:52:59;;;;;;;4.75;0.98;;;4.00;99.90;;;;;;5104050;28;20047;-64
2022/12/07 08:55:27;;;;;;;1.90;0.70;;;4.10;99.90;;;;;;5110564;28;20020;-63
2022/12/07 08:57:52;;;;;;;3.03;0.60;;;4.10;99.90;;;;;;5109136;28;20474;-64
2022/12/07 09:00:18;;;;;;;2.97;0.90;;;4.20;99.90;;;;;;5098038;28;20024;-64
2022/12/07 09:02:45;;;;;;;2.45;0.85;;;4.30;99.90;;;;;;5105457;28;20046;-64
2022/12/07 09:05:11;;;;;;;1.65;0.80;;;4.30;99.90;;;;;;5086982;28;20022;-64
2022/12/07 09:07:37;;;;;;;2.42;0.98;;;4.40;99.90;;;;;;5105904;28;20020;-64
2022/12/07 09:10:04;;;;;;;2.40;1.05;;;4.50;99.90;;;;;;5108227;28;20032;-64
2022/12/07 09:12:29;;;;;;;4.00;1.10;;;4.50;99.90;;;;;;5096930;28;20102;-64
2022/12/07 09:14:55;;;;;;;3.33;0.75;;;4.60;99.90;;;;;;5091742;28;20096;-64
2022/12/07 09:17:21;;;;;;;4.40;0.70;;;4.60;99.90;;;;;;5095843;28;20042;-64
2022/12/07 09:19:46;;;;;;;3.92;0.82;;;4.70;99.90;;;;;;5103660;28;20051;-64
2022/12/07 09:22:12;;;;;;;2.03;0.73;;;4.90;99.90;;;;;;5110770;27;20031;-65
2022/12/07 09:24:37;;;;;;;2.85;0.85;;;5.00;99.90;;;;;;5109914;28;20011;-64
2022/12/07 09:27:03;;;;;;;2.50;0.93;;;5.20;99.90;;;;;;5111139;28;20023;-64
2022/12/07 09:29:28;;;;;;;2.75;0.90;;;5.30;99.90;;;;;;5094932;28;20481;-64
2022/12/07 09:31:54;;;;;;;2.60;0.70;;;5.40;99.90;;;;;;5108998;28;20035;-64
2022/12/07 09:34:20;;;;;;;4.90;0.95;;;5.40;99.90;;;;;;5096267;28;20053;-64
2022/12/07 09:36:45;;;;;;;1.80;0.80;;;5.40;99.90;;;;;;5095271;28;20048;-64
2022/12/07 09:39:11;;;;;;;3.45;1.08;;;5.40;99.90;;;;;;5111806;28;20445;-64
2022/12/07 09:41:42;;;;;;;5.60;1.25;;;5.50;99.90;;;;;;5095010;28;20478;-64
2022/12/07 09:44:13;;;;;;;2.65;1.02;;;5.60;99.90;;;;;;5108150;28;20096;-64
2022/12/07 09:46:41;;;;;;;3.58;0.98;;;5.70;99.90;;;;;;5112331;28;20034;-64
2022/12/07 09:49:22;;;;;;;5.03;1.10;;;5.70;99.90;;;;;;5094485;28;20404;-64
2022/12/07 09:51:58;;;;;;;4.30;1.33;;;5.70;99.90;;;;;;5105471;28;20035;-64
2022/12/07 09:54:24;;;;;;;5.35;1.20;;;5.60;99.90;;;;;;5112224;28;20027;-64
2022/12/07 09:56:50;;;;;;;2.92;1.10;;;5.60;99.90;;;;;;5107827;28;20034;-64
2022/12/07 09:59:18;;;;;;;2.60;0.90;;;5.50;99.90;;;;;;5105288;28;20552;-64
2022/12/07 10:01:49;;;;;;;5.07;1.35;;;5.50;99.90;;;;;;5110891;28;20020;-64
2022/12/07 10:04:21;;;;;;;4.57;1.20;;;5.60;99.90;;;;;;5101428;28;20024;-64
2022/12/07 10:06:48;;;;;;;3.38;1.25;;;5.70;99.90;;;;;;5109372;28;20472;-64
2022/12/07 10:09:16;;;;;;;2.92;0.98;;;5.80;99.90;;;;;;5111033;28;20383;-65
2022/12/07 10:12:05;;;;;;;3.10;0.80;;;5.80;99.90;;;;;;5099306;28;20027;-64
2022/12/07 10:14:33;;;;;;;2.78;0.63;;;5.90;99.90;;;;;;5109215;28;20028;-64
2022/12/07 10:16:59;;;;;;;2.05;0.68;;;6.00;99.90;;;;;;5102821;28;20054;-64
2022/12/07 10:19:30;;;;;;;3.50;1.02;;;6.00;99.90;;;;;;5093825;28;20063;-64
2022/12/07 10:22:11;;;;;;;2.67;0.93;;;6.10;99.90;;;;;;5104047;28;20027;-64
2022/12/07 10:24:39;;;;;;;5.95;0.98;;;6.20;99.90;;;;;;5104412;28;20013;-64
2022/12/07 10:27:16;;;;;;;2.97;0.55;;;6.40;99.90;;;;;;5105916;28;20024;-64
2022/12/07 10:29:49;;;;;;;5.82;1.17;;;6.60;99.90;;;;;;5104660;28;20023;-64
2022/12/07 10:32:15;;;;;;;3.78;0.80;;;6.80;99.90;;;;;;5093808;28;20047;-64
2022/12/07 10:34:41;;;;;;;3.20;0.80;;;7.00;99.90;;;;;;5109070;28;20452;-64
2022/12/07 10:37:12;;;;;;;2.03;0.75;;;7.20;99.90;;;;;;5100369;28;20552;-64
2022/12/07 10:39:57;;;;;;;4.50;0.82;;;7.40;99.90;;;;;;5087553;28;20071;-64
2022/12/07 10:42:31;;;;;;;2.58;0.60;;;7.50;99.90;;;;;;5100878;28;20047;-64
2022/12/07 10:45:12;;;;;;;5.47;0.90;;;7.80;99.90;;;;;;5080567;28;20026;-64
2022/12/07 10:47:45;;;;;;;4.10;0.70;;;7.90;99.90;;;;;;5093961;28;20362;-64
2022/12/07 10:50:38;;;;;;;4.95;1.00;;;7.80;99.90;;;;;;5105202;28;20474;-64
2022/12/07 10:53:31;;;;;;;5.65;1.25;;;7.60;99.90;;;;;;5101397;28;20032;-64
2022/12/07 10:56:33;;;;;;;3.67;0.80;;;7.60;99.90;;;;;;5099089;28;20131;-64
2022/12/07 10:59:25;;;;;;;3.47;0.60;;;7.50;99.90;;;;;;5094976;28;20423;-64
2022/12/07 11:02:15;;;;;;;4.35;0.85;;;7.50;99.90;;;;;;5107047;28;20016;-64
2022/12/07 11:05:30;;;;;;;3.70;0.77;;;7.50;99.90;;;;;;5094383;28;20101;-64
2022/12/07 11:08:13;;;;;;;6.05;1.10;;;7.50;99.90;;;;;;5030534;28;20426;-64
2022/12/07 11:10:47;;;;;;;5.30;1.35;;;7.50;99.90;;;;;;5087916;28;20032;-64
2022/12/07 11:13:25;;;;;;;6.75;1.48;;;7.60;99.90;;;;;;5093589;28;20103;-64
2022/12/07 11:16:07;;;;;;;5.05;0.80;;;7.70;99.90;;;;;;5093128;28;20040;-64
2022/12/07 11:18:43;;;;;;;3.72;0.80;;;7.80;99.90;;;;;;5093181;28;20028;-64
2022/12/07 11:21:15;;;;;;;5.03;0.60;;;8.10;99.90;;;;;;5092867;28;20370;-64
2022/12/07 11:24:00;;;;;;;4.30;1.17;;;8.40;99.90;;;;;;5074559;28;20024;-64
2022/12/07 11:26:29;;;;;;;3.50;0.70;;;8.50;99.90;;;;;;5085150;28;20030;-64
2022/12/07 11:29:19;;;;;;;3.25;0.63;;;8.70;99.90;;;;;;5113113;28;20019;-64
2022/12/07 11:32:18;;;;;;;2.60;0.63;;;9.20;99.90;;;;;;5092986;28;20112;-64
2022/12/07 11:35:25;;;;;;;5.80;0.90;;;9.70;99.90;;;;;;5092462;28;20079;-64
2022/12/07 11:37:58;;;;;;;3.63;1.50;;;9.90;99.90;;;;;;5030635;28;20037;-64
2022/12/07 11:40:34;;;;;;;4.85;0.80;;;10.10;99.90;;;;;;5069956;28;20040;-64
2022/12/07 11:43:13;;;;;;;3.55;0.85;;;10.20;99.90;;;;;;5102765;28;20485;-64
2022/12/07 11:45:42;;;;;;;3.93;0.70;;;10.40;99.90;;;;;;5092492;28;20039;-64
2022/12/07 11:48:28;;;;;;;3.05;0.90;;;10.50;99.90;;;;;;5092785;28;20051;-64
2022/12/07 11:51:00;;;;;;;2.20;0.70;;;10.60;99.90;;;;;;5092986;28;20103;-64
2022/12/07 11:53:49;;;;;;;4.13;1.02;;;10.70;99.90;;;;;;5095169;28;20533;-64
2022/12/07 11:56:19;;;;;;;3.78;1.00;;;10.60;99.90;;;;;;5112520;28;20023;-64
2022/12/07 11:58:50;;;;;;;;;;;10.50;99.90;;;;;;5109279;28;20046;-64
2022/12/07 12:01:20;;;;;;;5.93;1.20;;;10.20;99.90;;;;;;5110766;28;19953;-64
2022/12/07 12:04:10;;;;;;;3.72;0.90;;;9.90;99.90;;;;;;5110874;28;20026;-64
2022/12/07 12:06:43;;;;;;;5.32;1.20;;;9.70;99.90;;;;;;5109609;28;20043;-64
2022/12/07 12:09:16;;;;;;;3.63;0.90;;;9.50;99.90;;;;;;5109292;28;20020;-64
2022/12/07 12:12:30;;;;;;;3.20;0.82;;;9.30;99.90;;;;;;5109940;28;20047;-64
2022/12/07 12:15:01;;;;;;;3.90;1.23;;;9.20;99.90;;;;;;5109342;28;20019;-64
2022/12/07 12:18:11;;;;;;;5.22;0.93;;;9.00;99.90;;;;;;5110681;28;20051;-64
2022/12/07 12:21:09;;;;;;;2.05;0.90;;;8.90;99.90;;;;;;5079139;28;20450;-64
2022/12/07 12:23:47;;;;;;;3.72;0.95;;;8.80;99.90;;;;;;5091713;28;20020;-64
2022/12/07 12:26:22;;;;;;;2.83;1.45;;;8.70;99.90;;;;;;5099953;28;20066;-64
2022/12/07 12:29:03;;;;;;;4.60;1.00;;;8.60;99.90;;;;;;5105348;28;20024;-64
2022/12/07 12:31:32;;;;;;;5.88;1.23;;;8.50;99.90;;;;;;5092144;28;20481;-64
2022/12/07 12:34:00;;;;;;;5.50;1.13;;;8.50;99.90;;;;;;5100727;28;20048;-64
2022/12/07 12:36:34;;;;;;;3.10;0.60;;;8.50;99.90;;;;;;5091963;28;20028;-64
2022/12/07 12:39:18;;;;;;;4.38;0.70;;;8.50;99.90;;;;;;5085682;28;20354;-64
2022/12/07 12:44:15;;;;;;;3.38;0.75;;;8.60;99.90;;;;;;5098628;28;20501;-64
2022/12/07 12:46:56;;;;;;;2.50;0.43;;;8.60;99.90;;;;;;5111951;28;20081;-64
2022/12/07 12:49:31;;;;;;;2.78;0.40;;;8.70;99.90;;;;;;5099964;28;20047;-64
2022/12/07 12:52:18;;;;;;;2.72;0.50;;;9.10;99.90;;;;;;5094333;28;20031;-64
2022/12/07 12:55:07;;;;;;;1.40;0.40;;;10.30;99.90;;;;;;5110529;28;20455;-64
2022/12/07 12:57:33;;;;;;;1.65;0.40;;;11.30;99.40;;;;;;5087075;28;20039;-64
2022/12/07 13:00:03;;;;;;;2.13;1.15;;;11.40;98.40;;;;;;5107972;27;20019;-64
2022/12/07 13:02:31;;;;;;;1.63;0.30;;;12.00;98.30;;;;;;5104412;28;20073;-64
2022/12/07 13:05:18;;;;;;;1.25;0.30;;;13.60;97.40;;;;;;5096254;28;20020;-64
2022/12/07 13:07:47;;;;;;;1.48;0.43;;;14.20;94.70;;;;;;5095245;28;20039;-64
2022/12/07 13:10:28;;;;;;;2.05;0.63;;;14.20;93.90;;;;;;5095753;28;20224;-64
2022/12/07 13:13:04;;;;;;;1.92;0.40;;;14.30;93.10;;;;;;5095733;28;20381;-64
2022/12/07 13:15:39;;;;;;;3.33;0.40;;;14.10;92.70;;;;;;5108058;28;20031;-64
2022/12/07 13:18:23;;;;;;;0.95;0.30;;;14.60;92.50;;;;;;5096111;28;20025;-64
2022/12/07 13:20:51;;;;;;;1.98;0.55;;;16.10;91.00;;;;;;5090362;28;20115;-64
2022/12/07 13:23:37;;;;;;;0.65;0.30;;;17.30;87.90;;;;;;5113535;28;20031;-64